sensor_id;sensor_type;location;lat;lon;timestamp;pressure;altitude;pressure_sealevel;temperature;humidity
58295;BME280;45705;55.592;37.460;2023-05-19T00:01:40;99690.84;;;15.61;100.00
58295;BME280;45705;55.592;37.460;2023-05-19T00:04:09;99692.91;;;15.64;100.00
58295;BME280;45705;55.592;37.460;2023-05-19T00:06:37;99692.44;;;15.62;100.00
58295;BME280;45705;55.592;37.460;2023-05-19T00:09:10;99694.06;;;15.63;100.00
58295;BME280;45705;55.592;37.460;2023-05-19T00:11:38;99689.25;;;15.51;100.00
58295;BME280;45705;55.592;37.460;2023-05-19T00:14:06;99698.34;;;15.34;100.00
58295;BME280;45705;55.592;37.460;2023-05-19T00:16:33;99701.63;;;15.10;100.00
58295;BME280;45705;55.592;37.460;2023-05-19T00:19:00;99712.22;;;15.12;100.00
58295;BME280;45705;55.592;37.460;2023-05-19T00:21:28;99706.75;;;15.21;100.00
58295;BME280;45705;55.592;37.460;2023-05-19T00:23:54;99710.97;;;15.18;100.00
58295;BME280;45705;55.592;37.460;2023-05-19T00:26:20;99709.94;;;15.31;100.00
58295;BME280;45705;55.592;37.460;2023-05-19T00:29:01;99713.69;;;15.09;100.00
58295;BME280;45705;55.592;37.460;2023-05-19T00:34:08;99722.88;;;15.22;100.00
58295;BME280;45705;55.592;37.460;2023-05-19T00:36:34;99726.41;;;15.14;100.00
58295;BME280;45705;55.592;37.460;2023-05-19T00:39:00;99744.13;;;15.25;100.00
58295;BME280;45705;55.592;37.460;2023-05-19T00:41:27;99735.25;;;15.20;100.00
58295;BME280;45705;55.592;37.460;2023-05-19T00:43:54;99732.84;;;15.35;100.00
58295;BME280;45705;55.592;37.460;2023-05-19T00:46:19;99725.09;;;15.38;100.00
58295;BME280;45705;55.592;37.460;2023-05-19T00:48:47;99729.69;;;14.99;100.00
58295;BME280;45705;55.592;37.460;2023-05-19T00:51:13;99735.44;;;15.06;100.00
58295;BME280;45705;55.592;37.460;2023-05-19T00:53:42;99727.53;;;15.22;100.00
58295;BME280;45705;55.592;37.460;2023-05-19T00:56:14;99726.13;;;15.07;100.00
58295;BME280;45705;55.592;37.460;2023-05-19T00:58:41;99733.53;;;14.98;100.00
58295;BME280;45705;55.592;37.460;2023-05-19T01:01:07;99729.34;;;14.91;100.00
58295;BME280;45705;55.592;37.460;2023-05-19T01:03:34;99740.63;;;14.81;100.00
58295;BME280;45705;55.592;37.460;2023-05-19T01:06:02;99737.09;;;14.72;100.00
58295;BME280;45705;55.592;37.460;2023-05-19T01:08:34;99744.75;;;14.52;100.00
58295;BME280;45705;55.592;37.460;2023-05-19T01:11:01;99742.50;;;14.54;100.00
58295;BME280;45705;55.592;37.460;2023-05-19T01:13:27;99744.81;;;14.70;100.00
58295;BME280;45705;55.592;37.460;2023-05-19T01:16:01;99746.41;;;14.71;100.00
58295;BME280;45705;55.592;37.460;2023-05-19T01:18:49;99741.09;;;14.57;100.00
58295;BME280;45705;55.592;37.460;2023-05-19T01:32:31;99748.59;;;14.51;100.00
58295;BME280;45705;55.592;37.460;2023-05-19T01:34:58;99751.13;;;14.22;100.00
58295;BME280;45705;55.592;37.460;2023-05-19T01:37:25;99743.38;;;14.06;100.00
58295;BME280;45705;55.592;37.460;2023-05-19T01:39:52;99751.78;;;14.27;100.00
58295;BME280;45705;55.592;37.460;2023-05-19T01:42:20;99759.22;;;14.44;100.00
58295;BME280;45705;55.592;37.460;2023-05-19T01:44:47;99763.09;;;14.43;100.00
58295;BME280;45705;55.592;37.460;2023-05-19T01:47:14;99756.66;;;14.48;100.00
58295;BME280;45705;55.592;37.460;2023-05-19T01:49:41;99749.75;;;14.50;100.00
58295;BME280;45705;55.592;37.460;2023-05-19T01:52:07;99753.97;;;14.56;100.00
58295;BME280;45705;55.592;37.460;2023-05-19T01:54:32;99764.69;;;14.35;100.00
58295;BME280;45705;55.592;37.460;2023-05-19T01:57:49;99760.78;;;14.28;100.00
58295;BME280;45705;55.592;37.460;2023-05-19T02:05:28;99767.78;;;14.03;100.00
58295;BME280;45705;55.592;37.460;2023-05-19T02:08:02;99766.44;;;13.83;100.00
58295;BME280;45705;55.592;37.460;2023-05-19T02:10:31;99767.25;;;13.52;100.00
58295;BME280;45705;55.592;37.460;2023-05-19T02:13:03;99774.91;;;13.27;100.00
58295;BME280;45705;55.592;37.460;2023-05-19T02:15:38;99780.63;;;13.17;100.00
58295;BME280;45705;55.592;37.460;2023-05-19T02:18:05;99779.00;;;12.93;100.00
58295;BME280;45705;55.592;37.460;2023-05-19T02:20:33;99782.47;;;13.08;100.00
58295;BME280;45705;55.592;37.460;2023-05-19T02:22:59;99781.75;;;13.16;100.00
58295;BME280;45705;55.592;37.460;2023-05-19T02:25:25;99775.72;;;13.05;100.00
58295;BME280;45705;55.592;37.460;2023-05-19T02:27:51;99786.47;;;13.02;100.00
58295;BME280;45705;55.592;37.460;2023-05-19T02:30:16;99790.03;;;12.88;100.00
58295;BME280;45705;55.592;37.460;2023-05-19T02:32:42;99794.00;;;12.82;100.00
58295;BME280;45705;55.592;37.460;2023-05-19T02:35:20;99791.47;;;12.35;100.00
58295;BME280;45705;55.592;37.460;2023-05-19T02:37:46;99794.25;;;12.72;100.00
58295;BME280;45705;55.592;37.460;2023-05-19T02:40:11;99792.44;;;12.53;100.00
58295;BME280;45705;55.592;37.460;2023-05-19T02:42:37;99798.22;;;12.38;100.00
58295;BME280;45705;55.592;37.460;2023-05-19T02:45:03;99803.38;;;12.12;100.00
58295;BME280;45705;55.592;37.460;2023-05-19T02:47:31;99809.63;;;12.26;100.00
58295;BME280;45705;55.592;37.460;2023-05-19T02:49:59;99805.19;;;12.02;100.00
58295;BME280;45705;55.592;37.460;2023-05-19T02:52:25;99799.94;;;12.06;100.00
58295;BME280;45705;55.592;37.460;2023-05-19T02:54:51;99812.22;;;11.90;100.00
58295;BME280;45705;55.592;37.460;2023-05-19T02:57:16;99816.28;;;12.06;100.00
58295;BME280;45705;55.592;37.460;2023-05-19T02:59:42;99807.31;;;12.19;100.00
58295;BME280;45705;55.592;37.460;2023-05-19T03:02:08;99814.66;;;12.19;100.00
58295;BME280;45705;55.592;37.460;2023-05-19T03:04:34;99813.06;;;12.04;100.00
58295;BME280;45705;55.592;37.460;2023-05-19T03:07:06;99817.31;;;12.10;100.00
58295;BME280;45705;55.592;37.460;2023-05-19T03:09:38;99822.34;;;12.03;100.00
58295;BME280;45705;55.592;37.460;2023-05-19T03:12:05;99826.47;;;12.00;100.00
58295;BME280;45705;55.592;37.460;2023-05-19T03:14:35;99825.97;;;12.12;98.76
58295;BME280;45705;55.592;37.460;2023-05-19T03:17:02;99842.78;;;11.87;99.45
58295;BME280;45705;55.592;37.460;2023-05-19T03:19:28;99840.63;;;11.70;98.78
58295;BME280;45705;55.592;37.460;2023-05-19T03:21:57;99836.41;;;11.77;98.62
58295;BME280;45705;55.592;37.460;2023-05-19T03:24:23;99844.34;;;12.20;96.57
58295;BME280;45705;55.592;37.460;2023-05-19T03:26:49;99847.78;;;11.98;95.48
58295;BME280;45705;55.592;37.460;2023-05-19T03:29:16;99831.56;;;11.88;96.36
58295;BME280;45705;55.592;37.460;2023-05-19T03:31:42;99852.09;;;11.99;94.27
58295;BME280;45705;55.592;37.460;2023-05-19T03:34:08;99848.06;;;11.97;94.64
58295;BME280;45705;55.592;37.460;2023-05-19T03:36:34;99852.22;;;12.08;94.76
58295;BME280;45705;55.592;37.460;2023-05-19T03:39:05;99844.38;;;11.88;95.85
58295;BME280;45705;55.592;37.460;2023-05-19T03:41:31;99861.19;;;11.95;96.25
58295;BME280;45705;55.592;37.460;2023-05-19T03:43:58;99861.28;;;12.04;97.56
58295;BME280;45705;55.592;37.460;2023-05-19T03:46:24;99867.31;;;11.87;97.81
58295;BME280;45705;55.592;37.460;2023-05-19T03:49:01;99867.53;;;11.90;99.22
58295;BME280;45705;55.592;37.460;2023-05-19T03:51:50;99865.25;;;11.78;100.00
58295;BME280;45705;55.592;37.460;2023-05-19T03:54:23;99866.56;;;12.00;100.00
58295;BME280;45705;55.592;37.460;2023-05-19T03:56:50;99860.91;;;12.10;100.00
58295;BME280;45705;55.592;37.460;2023-05-19T03:59:15;99867.56;;;12.04;99.78
58295;BME280;45705;55.592;37.460;2023-05-19T04:01:41;99870.81;;;12.06;100.00
58295;BME280;45705;55.592;37.460;2023-05-19T04:04:07;99876.94;;;11.98;100.00
58295;BME280;45705;55.592;37.460;2023-05-19T04:06:33;99873.41;;;12.11;100.00
58295;BME280;45705;55.592;37.460;2023-05-19T04:09:02;99870.38;;;11.99;100.00
58295;BME280;45705;55.592;37.460;2023-05-19T04:11:29;99867.16;;;11.97;100.00
58295;BME280;45705;55.592;37.460;2023-05-19T04:13:55;99873.03;;;12.04;100.00
58295;BME280;45705;55.592;37.460;2023-05-19T04:16:20;99874.19;;;11.98;100.00
58295;BME280;45705;55.592;37.460;2023-05-19T04:18:46;99872.84;;;12.14;100.00
58295;BME280;45705;55.592;37.460;2023-05-19T04:21:12;99871.13;;;11.86;100.00
58295;BME280;45705;55.592;37.460;2023-05-19T04:23:38;99879.72;;;12.26;100.00
58295;BME280;45705;55.592;37.460;2023-05-19T04:26:04;99868.25;;;11.96;100.00
58295;BME280;45705;55.592;37.460;2023-05-19T04:28:31;99874.84;;;12.09;100.00
58295;BME280;45705;55.592;37.460;2023-05-19T04:31:00;99878.72;;;12.21;100.00
58295;BME280;45705;55.592;37.460;2023-05-19T04:33:26;99874.13;;;11.84;100.00
58295;BME280;45705;55.592;37.460;2023-05-19T04:35:54;99877.69;;;11.85;100.00
58295;BME280;45705;55.592;37.460;2023-05-19T04:38:19;99879.25;;;11.91;100.00
58295;BME280;45705;55.592;37.460;2023-05-19T04:40:48;99876.66;;;12.13;100.00
58295;BME280;45705;55.592;37.460;2023-05-19T04:43:15;99881.38;;;12.08;100.00
58295;BME280;45705;55.592;37.460;2023-05-19T04:45:42;99880.22;;;12.28;100.00
58295;BME280;45705;55.592;37.460;2023-05-19T04:48:10;99884.31;;;11.97;100.00
58295;BME280;45705;55.592;37.460;2023-05-19T04:50:36;99882.91;;;12.00;100.00
58295;BME280;45705;55.592;37.460;2023-05-19T04:53:03;99884.56;;;12.29;100.00
58295;BME280;45705;55.592;37.460;2023-05-19T04:55:29;99889.41;;;12.32;100.00
58295;BME280;45705;55.592;37.460;2023-05-19T04:57:59;99882.22;;;11.75;100.00
58295;BME280;45705;55.592;37.460;2023-05-19T05:00:25;99885.19;;;11.60;100.00
58295;BME280;45705;55.592;37.460;2023-05-19T05:02:56;99887.97;;;11.55;100.00
58295;BME280;45705;55.592;37.460;2023-05-19T05:05:22;99888.56;;;11.52;100.00
58295;BME280;45705;55.592;37.460;2023-05-19T05:07:50;99888.88;;;11.31;100.00
58295;BME280;45705;55.592;37.460;2023-05-19T05:10:18;99890.84;;;11.07;100.00
58295;BME280;45705;55.592;37.460;2023-05-19T05:12:45;99891.94;;;11.43;100.00
58295;BME280;45705;55.592;37.460;2023-05-19T05:15:11;99898.44;;;11.48;100.00
58295;BME280;45705;55.592;37.460;2023-05-19T05:17:37;99904.16;;;11.65;100.00
58295;BME280;45705;55.592;37.460;2023-05-19T05:20:04;99905.59;;;11.76;100.00
58295;BME280;45705;55.592;37.460;2023-05-19T05:22:31;99907.13;;;11.50;100.00
58295;BME280;45705;55.592;37.460;2023-05-19T05:24:58;99904.69;;;11.67;100.00
58295;BME280;45705;55.592;37.460;2023-05-19T05:27:24;99909.19;;;11.58;100.00
58295;BME280;45705;55.592;37.460;2023-05-19T05:29:51;99909.22;;;11.72;100.00
58295;BME280;45705;55.592;37.460;2023-05-19T05:32:19;99911.50;;;11.83;100.00
58295;BME280;45705;55.592;37.460;2023-05-19T05:34:45;99919.00;;;11.92;100.00
58295;BME280;45705;55.592;37.460;2023-05-19T05:37:11;99922.41;;;11.46;100.00
58295;BME280;45705;55.592;37.460;2023-05-19T05:39:36;99917.06;;;11.40;100.00
58295;BME280;45705;55.592;37.460;2023-05-19T05:42:03;99920.38;;;11.37;100.00
58295;BME280;45705;55.592;37.460;2023-05-19T05:44:29;99926.19;;;11.50;100.00
58295;BME280;45705;55.592;37.460;2023-05-19T05:46:56;99922.22;;;11.23;100.00
58295;BME280;45705;55.592;37.460;2023-05-19T05:49:23;99921.78;;;11.35;100.00
58295;BME280;45705;55.592;37.460;2023-05-19T05:51:49;99928.47;;;11.61;100.00
58295;BME280;45705;55.592;37.460;2023-05-19T05:54:19;99930.16;;;11.57;100.00
58295;BME280;45705;55.592;37.460;2023-05-19T05:56:48;99932.72;;;11.49;100.00
58295;BME280;45705;55.592;37.460;2023-05-19T05:59:14;99931.63;;;11.31;100.00
58295;BME280;45705;55.592;37.460;2023-05-19T06:01:40;99929.50;;;11.47;100.00
58295;BME280;45705;55.592;37.460;2023-05-19T06:04:09;99936.56;;;11.29;100.00
58295;BME280;45705;55.592;37.460;2023-05-19T06:06:35;99934.66;;;11.29;100.00
58295;BME280;45705;55.592;37.460;2023-05-19T06:09:03;99935.66;;;11.33;100.00
58295;BME280;45705;55.592;37.460;2023-05-19T06:11:29;99938.34;;;11.38;100.00
58295;BME280;45705;55.592;37.460;2023-05-19T06:13:57;99932.50;;;11.45;100.00
58295;BME280;45705;55.592;37.460;2023-05-19T06:16:46;99935.66;;;11.33;100.00
58295;BME280;45705;55.592;37.460;2023-05-19T06:19:14;99937.16;;;11.45;100.00
58295;BME280;45705;55.592;37.460;2023-05-19T06:21:40;99931.59;;;11.69;100.00
58295;BME280;45705;55.592;37.460;2023-05-19T06:24:07;99938.66;;;11.89;100.00
58295;BME280;45705;55.592;37.460;2023-05-19T06:26:33;99939.31;;;11.80;100.00
58295;BME280;45705;55.592;37.460;2023-05-19T06:28:59;99930.34;;;11.99;100.00
58295;BME280;45705;55.592;37.460;2023-05-19T06:31:27;99931.81;;;11.72;100.00
58295;BME280;45705;55.592;37.460;2023-05-19T06:33:55;99927.91;;;11.97;100.00
58295;BME280;45705;55.592;37.460;2023-05-19T06:36:21;99932.63;;;12.25;100.00
58295;BME280;45705;55.592;37.460;2023-05-19T06:38:49;99934.41;;;12.62;100.00
58295;BME280;45705;55.592;37.460;2023-05-19T06:41:15;99935.59;;;12.56;100.00
58295;BME280;45705;55.592;37.460;2023-05-19T06:43:41;99940.78;;;12.25;100.00
58295;BME280;45705;55.592;37.460;2023-05-19T06:46:12;99930.84;;;12.75;100.00
58295;BME280;45705;55.592;37.460;2023-05-19T06:48:38;99941.56;;;12.72;100.00
58295;BME280;45705;55.592;37.460;2023-05-19T06:51:15;99944.56;;;13.12;100.00
58295;BME280;45705;55.592;37.460;2023-05-19T06:53:48;99950.66;;;13.09;100.00
58295;BME280;45705;55.592;37.460;2023-05-19T06:56:14;99947.22;;;12.89;98.88
58295;BME280;45705;55.592;37.460;2023-05-19T06:58:41;99938.06;;;13.35;98.74
58295;BME280;45705;55.592;37.460;2023-05-19T07:01:07;99950.00;;;13.39;95.79
58295;BME280;45705;55.592;37.460;2023-05-19T07:03:39;99941.94;;;13.57;96.07
58295;BME280;45705;55.592;37.460;2023-05-19T07:06:05;99937.00;;;13.59;94.86
58295;BME280;45705;55.592;37.460;2023-05-19T07:08:30;99945.47;;;13.71;94.00
58295;BME280;45705;55.592;37.460;2023-05-19T07:10:59;99949.53;;;13.60;93.85
58295;BME280;45705;55.592;37.460;2023-05-19T07:13:25;99946.66;;;13.79;93.32
58295;BME280;45705;55.592;37.460;2023-05-19T07:15:51;99955.09;;;13.69;93.10
58295;BME280;45705;55.592;37.460;2023-05-19T07:18:20;99948.16;;;13.49;94.27
58295;BME280;45705;55.592;37.460;2023-05-19T07:20:46;99948.63;;;13.87;90.00
58295;BME280;45705;55.592;37.460;2023-05-19T07:23:12;99955.22;;;13.86;90.52
58295;BME280;45705;55.592;37.460;2023-05-19T07:25:38;99950.47;;;13.78;91.30
58295;BME280;45705;55.592;37.460;2023-05-19T07:28:04;99950.03;;;13.62;91.64
58295;BME280;45705;55.592;37.460;2023-05-19T07:30:29;99959.31;;;13.75;90.43
58295;BME280;45705;55.592;37.460;2023-05-19T07:32:55;99943.47;;;13.63;90.82
58295;BME280;45705;55.592;37.460;2023-05-19T07:35:21;99953.41;;;13.59;91.19
58295;BME280;45705;55.592;37.460;2023-05-19T07:37:48;99955.56;;;13.48;91.34
58295;BME280;45705;55.592;37.460;2023-05-19T07:40:13;99946.91;;;13.55;92.49
58295;BME280;45705;55.592;37.460;2023-05-19T07:42:40;99955.28;;;13.95;89.25
58295;BME280;45705;55.592;37.460;2023-05-19T07:45:06;99955.84;;;14.06;88.75
58295;BME280;45705;55.592;37.460;2023-05-19T07:47:32;99948.00;;;14.13;86.83
58295;BME280;45705;55.592;37.460;2023-05-19T07:49:58;99951.66;;;14.31;86.56
58295;BME280;45705;55.592;37.460;2023-05-19T07:52:24;99951.97;;;14.07;87.85
58295;BME280;45705;55.592;37.460;2023-05-19T07:54:50;99948.44;;;14.06;87.36
58295;BME280;45705;55.592;37.460;2023-05-19T07:57:16;99948.81;;;13.91;87.78
58295;BME280;45705;55.592;37.460;2023-05-19T07:59:43;99947.19;;;13.90;86.85
58295;BME280;45705;55.592;37.460;2023-05-19T08:02:09;99951.03;;;14.65;82.71
58295;BME280;45705;55.592;37.460;2023-05-19T08:04:35;99948.09;;;14.62;79.70
58295;BME280;45705;55.592;37.460;2023-05-19T08:07:01;99943.78;;;14.38;80.82
58295;BME280;45705;55.592;37.460;2023-05-19T08:09:26;99944.19;;;14.23;80.16
58295;BME280;45705;55.592;37.460;2023-05-19T08:11:52;99944.38;;;14.26;80.62
58295;BME280;45705;55.592;37.460;2023-05-19T08:14:18;99947.41;;;14.25;81.70
58295;BME280;45705;55.592;37.460;2023-05-19T08:16:46;99953.91;;;14.60;80.15
58295;BME280;45705;55.592;37.460;2023-05-19T08:19:12;99948.25;;;14.25;81.10
58295;BME280;45705;55.592;37.460;2023-05-19T08:21:38;99949.25;;;14.38;80.84
58295;BME280;45705;55.592;37.460;2023-05-19T08:24:04;99951.56;;;14.76;75.95
58295;BME280;45705;55.592;37.460;2023-05-19T08:26:30;99945.69;;;15.18;74.42
58295;BME280;45705;55.592;37.460;2023-05-19T08:28:56;99953.13;;;14.68;73.76
58295;BME280;45705;55.592;37.460;2023-05-19T08:31:22;99946.41;;;15.49;70.85
58295;BME280;45705;55.592;37.460;2023-05-19T08:33:49;99946.56;;;15.35;69.21
58295;BME280;45705;55.592;37.460;2023-05-19T08:36:15;99947.34;;;16.23;64.79
58295;BME280;45705;55.592;37.460;2023-05-19T08:38:41;99946.22;;;15.37;66.93
58295;BME280;45705;55.592;37.460;2023-05-19T08:41:07;99936.50;;;16.27;64.55
58295;BME280;45705;55.592;37.460;2023-05-19T08:43:33;99942.00;;;17.04;59.41
58295;BME280;45705;55.592;37.460;2023-05-19T08:45:59;99936.50;;;17.34;58.34
58295;BME280;45705;55.592;37.460;2023-05-19T08:48:28;99954.53;;;16.45;60.74
58295;BME280;45705;55.592;37.460;2023-05-19T08:51:43;99946.66;;;16.82;56.76
58295;BME280;45705;55.592;37.460;2023-05-19T08:53:50;99931.56;;;16.59;53.44
58295;BME280;45705;55.592;37.460;2023-05-19T08:56:21;99940.88;;;17.05;52.09
58295;BME280;45705;55.592;37.460;2023-05-19T08:58:49;99935.22;;;17.10;51.67
58295;BME280;45705;55.592;37.460;2023-05-19T09:01:17;99943.78;;;17.08;49.45
58295;BME280;45705;55.592;37.460;2023-05-19T09:03:46;99946.34;;;16.75;48.97
58295;BME280;45705;55.592;37.460;2023-05-19T09:06:14;99945.69;;;16.78;48.55
58295;BME280;45705;55.592;37.460;2023-05-19T09:08:41;99954.09;;;16.34;50.67
58295;BME280;45705;55.592;37.460;2023-05-19T09:11:08;99947.19;;;16.11;50.38
58295;BME280;45705;55.592;37.460;2023-05-19T09:13:34;99946.94;;;16.89;48.09
58295;BME280;45705;55.592;37.460;2023-05-19T09:16:01;99943.09;;;16.90;45.76
58295;BME280;45705;55.592;37.460;2023-05-19T09:18:28;99948.31;;;16.66;45.71
58295;BME280;45705;55.592;37.460;2023-05-19T09:20:59;99939.53;;;16.81;45.72
58295;BME280;45705;55.592;37.460;2023-05-19T09:23:29;99940.41;;;16.64;44.81
58295;BME280;45705;55.592;37.460;2023-05-19T09:25:57;99945.38;;;16.71;44.50
58295;BME280;45705;55.592;37.460;2023-05-19T09:28:29;99945.25;;;16.11;45.89
58295;BME280;45705;55.592;37.460;2023-05-19T09:31:00;99942.47;;;16.76;44.12
58295;BME280;45705;55.592;37.460;2023-05-19T09:33:27;99939.91;;;16.24;44.57
58295;BME280;45705;55.592;37.460;2023-05-19T09:35:56;99933.19;;;17.19;41.81
58295;BME280;45705;55.592;37.460;2023-05-19T09:38:28;99937.00;;;17.06;41.47
58295;BME280;45705;55.592;37.460;2023-05-19T09:40:55;99922.72;;;17.76;40.27
58295;BME280;45705;55.592;37.460;2023-05-19T09:43:22;99930.78;;;17.39;40.21
58295;BME280;45705;55.592;37.460;2023-05-19T09:45:54;99931.06;;;17.46;41.02
58295;BME280;45705;55.592;37.460;2023-05-19T09:48:20;99932.19;;;18.20;39.39
58295;BME280;45705;55.592;37.460;2023-05-19T09:50:47;99940.38;;;16.82;41.99
58295;BME280;45705;55.592;37.460;2023-05-19T09:53:13;99928.66;;;17.65;40.22
58295;BME280;45705;55.592;37.460;2023-05-19T09:55:39;99934.97;;;17.24;41.31
58295;BME280;45705;55.592;37.460;2023-05-19T09:58:08;99931.69;;;17.01;41.09
58295;BME280;45705;55.592;37.460;2023-05-19T10:00:34;99925.78;;;16.90;42.08
58295;BME280;45705;55.592;37.460;2023-05-19T10:03:02;99934.63;;;16.96;41.46
58295;BME280;45705;55.592;37.460;2023-05-19T10:05:30;99923.66;;;16.96;41.88
58295;BME280;45705;55.592;37.460;2023-05-19T10:07:56;99914.16;;;17.56;40.65
58295;BME280;45705;55.592;37.460;2023-05-19T10:10:22;99922.47;;;17.68;40.07
58295;BME280;45705;55.592;37.460;2023-05-19T10:12:48;99914.81;;;17.11;41.74
58295;BME280;45705;55.592;37.460;2023-05-19T10:15:16;99920.97;;;16.87;40.74
58295;BME280;45705;55.592;37.460;2023-05-19T10:17:43;99932.56;;;16.45;42.37
58295;BME280;45705;55.592;37.460;2023-05-19T10:20:15;99923.81;;;17.20;41.57
58295;BME280;45705;55.592;37.460;2023-05-19T10:22:43;99925.06;;;17.52;41.22
58295;BME280;45705;55.592;37.460;2023-05-19T10:25:10;99921.88;;;17.84;40.45
58295;BME280;45705;55.592;37.460;2023-05-19T10:27:40;99914.13;;;17.98;39.44
58295;BME280;45705;55.592;37.460;2023-05-19T10:30:17;99916.25;;;18.14;39.46
58295;BME280;45705;55.592;37.460;2023-05-19T10:32:46;99915.28;;;17.97;40.00
58295;BME280;45705;55.592;37.460;2023-05-19T10:38:26;99916.56;;;18.95;37.96
58295;BME280;45705;55.592;37.460;2023-05-19T10:41:15;99921.81;;;18.63;38.68
58295;BME280;45705;55.592;37.460;2023-05-19T10:43:53;99920.38;;;18.20;39.32
58295;BME280;45705;55.592;37.460;2023-05-19T10:46:26;99921.00;;;18.62;37.63
58295;BME280;45705;55.592;37.460;2023-05-19T10:48:53;99918.63;;;18.85;36.97
58295;BME280;45705;55.592;37.460;2023-05-19T10:51:20;99911.47;;;18.35;37.31
58295;BME280;45705;55.592;37.460;2023-05-19T10:53:52;99914.22;;;18.47;37.00
58295;BME280;45705;55.592;37.460;2023-05-19T10:56:31;99922.94;;;18.25;38.20
58295;BME280;45705;55.592;37.460;2023-05-19T10:58:59;99918.72;;;18.64;36.86
58295;BME280;45705;55.592;37.460;2023-05-19T11:01:35;99916.78;;;19.14;35.90
58295;BME280;45705;55.592;37.460;2023-05-19T11:04:07;99920.38;;;18.20;37.23
58295;BME280;45705;55.592;37.460;2023-05-19T11:06:35;99911.97;;;18.99;36.29
58295;BME280;45705;55.592;37.460;2023-05-19T11:09:12;99905.72;;;19.39;35.23
58295;BME280;45705;55.592;37.460;2023-05-19T11:11:48;99909.38;;;19.43;34.43
58295;BME280;45705;55.592;37.460;2023-05-19T11:14:19;99905.06;;;19.05;34.55
58295;BME280;45705;55.592;37.460;2023-05-19T11:16:46;99909.72;;;19.41;34.16
58295;BME280;45705;55.592;37.460;2023-05-19T11:19:28;99905.88;;;19.58;33.65
58295;BME280;45705;55.592;37.460;2023-05-19T11:21:55;99907.78;;;19.30;34.14
58295;BME280;45705;55.592;37.460;2023-05-19T11:24:39;99911.63;;;18.88;34.81
58295;BME280;45705;55.592;37.460;2023-05-19T11:29:55;99906.44;;;19.23;34.06
58295;BME280;45705;55.592;37.460;2023-05-19T11:32:23;99910.91;;;18.66;35.10
58295;BME280;45705;55.592;37.460;2023-05-19T11:34:50;99918.16;;;18.96;34.71
58295;BME280;45705;55.592;37.460;2023-05-19T11:37:17;99920.88;;;18.59;35.61
58295;BME280;45705;55.592;37.460;2023-05-19T11:39:44;99913.34;;;19.05;35.01
58295;BME280;45705;55.592;37.460;2023-05-19T11:42:10;99923.31;;;18.73;35.31
58295;BME280;45705;55.592;37.460;2023-05-19T11:44:36;99911.50;;;18.72;34.97
58295;BME280;45705;55.592;37.460;2023-05-19T11:47:04;99910.59;;;18.80;34.93
58295;BME280;45705;55.592;37.460;2023-05-19T11:49:30;99912.13;;;19.31;34.26
58295;BME280;45705;55.592;37.460;2023-05-19T11:51:56;99913.53;;;19.24;34.72
58295;BME280;45705;55.592;37.460;2023-05-19T11:54:28;99906.44;;;19.52;34.51
58295;BME280;45705;55.592;37.460;2023-05-19T11:56:56;99906.44;;;19.64;34.34
58295;BME280;45705;55.592;37.460;2023-05-19T11:59:34;99910.88;;;19.68;34.33
58295;BME280;45705;55.592;37.460;2023-05-19T12:02:21;99921.59;;;19.05;34.42
58295;BME280;45705;55.592;37.460;2023-05-19T12:04:49;99909.78;;;19.04;34.69
58295;BME280;45705;55.592;37.460;2023-05-19T12:07:17;99922.19;;;18.98;34.73
58295;BME280;45705;55.592;37.460;2023-05-19T12:09:47;99917.91;;;19.13;34.65
58295;BME280;45705;55.592;37.460;2023-05-19T12:12:18;99905.28;;;19.12;34.19
58295;BME280;45705;55.592;37.460;2023-05-19T12:14:51;99912.44;;;18.88;34.01
58295;BME280;45705;55.592;37.460;2023-05-19T12:17:20;99917.91;;;19.13;34.17
58295;BME280;45705;55.592;37.460;2023-05-19T12:19:48;99924.72;;;18.79;34.00
58295;BME280;45705;55.592;37.460;2023-05-19T12:22:16;99922.38;;;18.44;35.19
58295;BME280;45705;55.592;37.460;2023-05-19T12:24:43;99922.63;;;18.63;34.44
58295;BME280;45705;55.592;37.460;2023-05-19T12:27:21;99920.19;;;18.37;35.04
58295;BME280;45705;55.592;37.460;2023-05-19T12:29:52;99916.16;;;17.89;35.18
58295;BME280;45705;55.592;37.460;2023-05-19T12:32:26;99920.06;;;17.88;34.71
58295;BME280;45705;55.592;37.460;2023-05-19T12:34:56;99907.31;;;18.17;34.23
58295;BME280;45705;55.592;37.460;2023-05-19T12:37:25;99925.69;;;18.37;33.73
58295;BME280;45705;55.592;37.460;2023-05-19T12:39:52;99928.69;;;18.44;33.12
58295;BME280;45705;55.592;37.460;2023-05-19T12:42:18;99929.84;;;18.68;33.50
58295;BME280;45705;55.592;37.460;2023-05-19T12:44:46;99917.47;;;18.74;33.31
58295;BME280;45705;55.592;37.460;2023-05-19T12:47:13;99928.69;;;18.32;33.51
58295;BME280;45705;55.592;37.460;2023-05-19T12:50:00;99931.38;;;18.20;33.65
58295;BME280;45705;55.592;37.460;2023-05-19T12:52:33;99927.09;;;18.56;33.03
58295;BME280;45705;55.592;37.460;2023-05-19T12:55:04;99917.78;;;17.48;34.55
58295;BME280;45705;55.592;37.460;2023-05-19T12:57:38;99926.50;;;17.92;34.14
58295;BME280;45705;55.592;37.460;2023-05-19T13:02:35;99932.38;;;18.48;33.84
58295;BME280;45705;55.592;37.460;2023-05-19T13:05:02;99921.34;;;18.61;33.02
58295;BME280;45705;55.592;37.460;2023-05-19T13:07:30;99927.81;;;18.77;32.90
58295;BME280;45705;55.592;37.460;2023-05-19T13:09:56;99927.59;;;18.82;32.63
58295;BME280;45705;55.592;37.460;2023-05-19T13:12:23;99925.59;;;18.00;33.37
58295;BME280;45705;55.592;37.460;2023-05-19T13:14:49;99927.25;;;18.14;32.96
58295;BME280;45705;55.592;37.460;2023-05-19T13:17:14;99926.44;;;17.59;33.91
58295;BME280;45705;55.592;37.460;2023-05-19T13:19:40;99922.50;;;17.47;33.50